Radar is unstable, so pay attention to the date and time in the image

Latest  Newer  Older  Last 2 hours animation  Current image  Latest image  Summary per 24h (testing)  Summary per 7d (testing) 
Cloud coverage sat images  Infrared sat images 
Real-time lightning map

All time is UTC (add 2 hours in wintertime, 3 hours in DST for Latvia local time)

2019/12/16 07:50 EVRA 160750Z 24010KT 200V290 9999 SCT016CB OVC018 05/02 Q1000 R18/290195 NOSIG
2019/12/16 07:50 EVLA 160750Z AUTO 27009KT 250V310 9999 SCT022/// OVC027/// 06/03 Q1004
2019/12/16 07:50 EVVA 160750Z AUTO 27019G29KT 9999 BKN020 OVC028 06/03 Q1001
2019/12/16 07:50 EYKA 160750Z 25020KT 210V290 9999 FEW023 SCT030 05/01 Q1007 R08/290095
2019/12/16 07:50 EYPA 160750Z 28009KT 230V320 9999 BKN022 07/04 Q1006 R19/2///95
2019/12/16 07:50 EYSA 160750Z 25016KT 9999 FEW010 BKN015 BKN019 04/03 Q1004 R14L/29//95 R14R/29//95 WHT NOSIG
2019/12/16 07:50 EYVI 160750Z 24013KT 9999 BKN025 03/00 Q1008 R19/2///95 NOSIG
2019/12/16 07:50 EEKA 160750Z 31004KT 250V360 9999 -RA FEW003 BKN030 03/02 Q0995
2019/12/16 07:50 EEKE 160750Z 30013G23KT 260V340 9000 -RA SCT011 BKN019 OVC023 04/04 Q0996 R17/290195
2019/12/16 07:50 EEPU 160750Z 26005KT 8000 -RA BKN014 OVC021 03/03 Q0994
2019/12/16 07:50 EETN 160750Z 26004KT 4400 BR OVC010 02/02 Q0993 R08/290195 TEMPO 3000
2019/12/16 07:50 EETU 160750Z 23010KT 9999 -RA BKN007 OVC013 03/02 Q0992
   RIGA AIRPORT     EVRA               56 55N  023 58E   10   X     T          6 LV
   LIEPAJA INTL     EVLA        26406  56 31N  021 06E    4   X                8 LV
   VENTPILS         EVVA               57 21N  021 33E    6   X                8 LV
   KAUNAS           EYKA               54 54N  023 55E   77   X     T          6 LT
   PALANGA INTL     EYPA               55 55N  021 03E   10   X                6 LT
   SIAULIAI INTL    EYSA               55 54N  023 24E  135   X     T          6 LT
   VILNIUS INTL     EYVI        26730  54 38N  025 17E  197   X     T          6 LT
   KARDLA           EEKA        26116  58 59N  022 50E    4   X                8 EE
   KURESSAARE       EEKE               58 14N  022 31E    4   X                8 EE
   PARNU            EEPU               58 25N  024 28E   14   X                8 EE
   TALLINN          EETN        26038  59 24N  024 49E   40   X     T          8 EE
   TARTU            EETU               58 19N  026 41E   67   X                8 EE

rain/snow radar image from www.meteo.lv and METAR data from weather.noaa.gov